hintergrundbild

 METAR AND TAF INFORMATION
METAR FOR LFKJ
ADDS - METARS form results

(1221 UTC 28 March 2020)
Data provider http://aviationweather.gov/metar/data/
 
METAR text: LFKJ 281200Z AUTO 23007KT 170V330 9999 -RA FEW017/// BKN035/// OVC050/// ///TCU 16/09 Q1014 TEMPO RA BKN010 FEW035TCU
Conditions at: LFKJ (AJACCIO/CAMPO OR, FR) observed 1200 UTC 28 March 2020
Temperature: 16.0°C (61°F)
Dewpoint: 9.0°C (48°F) [RH = 63%]
Pressure (altimeter): 29.94 inches Hg (1014.0 mb)
Winds: from the SW (230 degrees) at 8 MPH (7 knots; 3.6 m/s)
Visibility: 6 or more miles (10+ km)
Ceiling: 3500 feet AGL
Clouds: few clouds at 1700 feet AGL
broken clouds at 3500 feet AGL
overcast cloud deck at 5000 feet AGL
Weather: -RA  (light rain)

METAR text: LFKJ 281130Z AUTO 26006KT 200V300 9999 BKN036/// BKN062/// OVC082/// ///TCU 16/08 Q1014 TEMPO RA BKN010 FEW035TCU
Conditions at: LFKJ (AJACCIO/CAMPO OR, FR) observed 1130 UTC 28 March 2020
Temperature: 16.0°C (61°F)
Dewpoint: 8.0°C (46°F) [RH = 59%]
Pressure (altimeter): 29.94 inches Hg (1014.0 mb)
Winds: from the W (260 degrees) at 7 MPH (6 knots; 3.1 m/s)
Visibility: 6 or more miles (10+ km)
Ceiling: 3600 feet AGL
Clouds: broken clouds at 3600 feet AGL
broken clouds at 6200 feet AGL
overcast cloud deck at 8200 feet AGL
Weather: no significant weather observed at this time

Forecast for: LFKJ (AJACCIO/CAMPO OR, FR)
Text: TAF LFKJ 280800Z 2809/2909 05005KT 9999 FEW050
Forecast period: 0900 UTC 28 March 2020 to 0900 UTC 29 March 2020
Forecast type: FROM: standard forecast or significant change
Winds: from the NE (50 degrees) at 6 MPH (5 knots; 2.6 m/s)
Visibility: 6 or more miles 10+ km)
Ceiling: at least 12,000 feet AGL
Clouds: few clouds at 5000 feet AGL
Weather: no significant weather forecast for this period
Text: TEMPO 2810/2816 RA BKN010 FEW035TCU
Forecast period: 1000 to 1600 UTC 28 March 2020
Forecast type: TEMPORARY: The following changes expected for less than half the time period
Visibility: missing
Ceiling: 1000 feet AGL
Clouds: broken clouds at 1000 feet AGL
few clouds at 3500 feet AGL
Weather: RA  (moderate rain)

 AIRPORT MAP

 RUNWAY INFORMATION
Runway 02 Runway length 7897 ft Runway width 148 ft
Runway elevation 15 ft Runway displaced threshold 0 ft Runway heading 25
Runway 20 Runway length 7897 ft Runway width 148 ft
Runway elevation 18 ft Runway displaced threshold 744 ft Runway heading 205

 AIRPORT FREQUENCIES
Type AFIS Name AFIS Frequency 119.825 MHZ
Type APP Name AJACCIO AP Frequency 121.05 MHZ
Type ATIS Name AJACCIO AT Frequency 126.925 MHZ
Type GND Name AJACCIO GN Frequency 121.7 MHZ
Type TWR Name AJACCIO TW Frequency 118.075 MHZ

 AIRPORT NEAR NAVIGATION AIDS
Type NDB Name Ajaccio/Campo Dell Oro Frequency 341 KHZ



Impressum